Time;durP1;ratioP1;P1;durP2;ratioP2;P2;SDS_P1;SDS_P2;PMS_P1;PMS_P2;Temp;Humidity;BMP_temperature;BMP_pressure;BME280_temperature;BME280_humidity;BME280_pressure;Samples;Min_cycle;Max_cycle;Signal;HPM_P1;HPM_P2
2022/06/02 00:01:05;;;;;;;12.02;9.85;;;;;;;8.65;84.58;101920.22;4945675;28;20028;-86
2022/06/02 00:03:41;;;;;;;11.40;9.52;;;;;;;8.57;85.16;101921.53;4945273;28;20023;-86
2022/06/02 00:06:19;;;;;;;11.07;10.07;;;;;;;8.53;85.19;101919.97;4931549;29;20500;-86
2022/06/02 00:09:17;;;;;;;9.85;8.95;;;;;;;8.52;84.99;101915.66;4932809;29;20035;-86
2022/06/02 00:12:05;;;;;;;11.48;10.32;;;;;;;8.47;85.05;101921.13;4927488;29;20173;-86
2022/06/02 00:14:52;;;;;;;10.43;9.52;;;;;;;8.45;85.15;101925.59;4941517;28;20027;-87
2022/06/02 00:17:23;;;;;;;10.77;9.18;;;;;;;8.35;85.34;101919.91;4941656;28;20393;-86
2022/06/02 00:20:12;;;;;;;10.75;9.75;;;;;;;8.34;85.32;101920.84;4926116;29;20814;-86
2022/06/02 00:22:53;;;;;;;11.13;9.73;;;;;;;8.34;85.52;101927.84;4927560;29;20034;-87
2022/06/02 00:25:50;;;;;;;11.20;10.10;;;;;;;8.30;85.25;101915.78;4943465;28;20031;-86
2022/06/02 00:28:23;;;;;;;12.27;10.20;;;;;;;8.23;85.66;101919.63;4929786;29;20035;-86
2022/06/02 00:31:15;;;;;;;11.45;10.25;;;;;;;8.18;85.66;101923.31;4928694;29;20237;-86
2022/06/02 00:33:53;;;;;;;10.57;9.63;;;;;;;8.14;85.79;101916.50;4913864;28;20043;-86
2022/06/02 00:36:36;;;;;;;11.68;10.48;;;;;;;8.16;85.72;101929.56;4949537;28;20089;-86
2022/06/02 00:39:03;;;;;;;11.30;9.90;;;;;;;8.10;85.55;101924.59;4944903;28;20034;-86
2022/06/02 00:41:54;;;;;;;11.35;10.15;;;;;;;8.09;85.64;101926.38;4948387;28;20437;-86
2022/06/02 00:44:38;;;;;;;11.48;10.43;;;;;;;8.03;85.77;101929.28;4950884;28;20079;-86
2022/06/02 00:47:28;;;;;;;12.73;10.90;;;;;;;8.01;85.60;101936.38;4931142;28;20030;-86
2022/06/02 00:50:32;;;;;;;11.32;10.32;;;;;;;7.98;85.76;101931.22;4923175;29;20095;-86
2022/06/02 00:53:33;;;;;;;12.00;10.80;;;;;;;7.89;85.81;101942.13;4922535;29;20350;-86
2022/06/02 00:59:10;;;;;;;13.83;11.60;;;;;;;7.83;86.68;101942.41;4952967;28;20042;-86
2022/06/02 01:01:36;;;;;;;12.57;11.32;;;;;;;7.78;86.69;101939.16;4950711;28;20831;-86
2022/06/02 01:04:24;;;;;;;11.45;10.43;;;;;;;7.76;86.92;101941.00;4949628;28;20469;-86
2022/06/02 01:06:53;;;;;;;11.57;10.57;;;;;;;7.74;87.00;101929.72;4935786;29;20154;-86
2022/06/02 01:09:52;;;;;;;12.05;10.80;;;;;;;7.74;86.84;101932.34;4945136;28;20114;-86
2022/06/02 01:12:46;;;;;;;12.50;11.40;;;;;;;7.64;86.87;101937.16;4949705;28;20062;-86
2022/06/02 01:15:30;;;;;;;12.32;10.98;;;;;;;7.65;86.97;101938.88;4953113;28;20031;-86
2022/06/02 01:18:33;;;;;;;11.73;10.73;;;;;;;7.65;86.21;101932.78;4943284;28;20041;-87
2022/06/02 01:21:05;;;;;;;12.30;11.05;;;;;;;7.55;86.94;101933.16;4908187;29;20098;-86
2022/06/02 01:24:11;;;;;;;11.48;10.35;;;;;;;7.60;86.42;101934.72;4929127;29;20489;-86
2022/06/02 01:26:45;;;;;;;12.38;11.18;;;;;;;7.48;87.17;101926.50;4951140;29;20569;-86
2022/06/02 01:29:41;;;;;;;11.68;10.57;;;;;;;7.49;87.02;101930.81;4926986;29;20039;-87
2022/06/02 01:32:32;;;;;;;11.15;10.05;;;;;;;7.38;86.98;101943.53;4947726;29;20714;-86
2022/06/02 01:35:07;;;;;;;11.63;10.60;;;;;;;7.36;86.85;101940.13;4943726;29;20035;-87
2022/06/02 01:37:58;;;;;;;11.10;10.00;;;;;;;7.36;86.88;101942.75;4949121;28;20035;-86
2022/06/02 01:40:33;;;;;;;11.00;10.00;;;;;;;7.30;86.90;101937.78;4951882;29;20027;-86
2022/06/02 01:42:59;;;;;;;11.02;10.05;;;;;;;7.26;86.94;101940.59;4926830;29;20568;-86
2022/06/02 01:45:46;;;;;;;10.80;9.85;;;;;;;7.26;86.97;101938.81;4934553;28;20066;-86
2022/06/02 01:48:35;;;;;;;11.70;10.68;;;;;;;7.16;87.36;101935.72;4932621;29;20047;-87
2022/06/02 01:51:19;;;;;;;11.73;9.98;;;;;;;7.17;86.91;101942.66;4948743;29;20061;-86
2022/06/02 01:53:50;;;;;;;11.07;10.05;;;;;;;7.09;87.03;101936.03;4934953;29;20031;-86
2022/06/02 01:57:00;;;;;;;10.82;9.93;;;;;;;7.11;86.61;101936.84;4950750;28;20059;-86
2022/06/02 01:59:54;;;;;;;11.10;10.10;;;;;;;7.08;87.01;101943.03;4941250;29;20042;-86
2022/06/02 02:02:32;;;;;;;11.88;10.77;;;;;;;6.95;86.78;101939.25;4931799;29;20046;-87
2022/06/02 02:05:06;;;;;;;12.20;11.10;;;;;;;6.97;87.73;101945.25;4943592;28;20044;-86
2022/06/02 02:07:40;;;;;;;12.75;11.50;;;;;;;7.02;88.25;101947.69;4940901;29;20095;-86
2022/06/02 02:10:42;;;;;;;14.18;12.77;;;;;;;7.00;87.99;101949.53;4947580;29;20043;-87
2022/06/02 02:13:39;;;;;;;15.63;14.02;;;;;;;7.03;87.57;101949.38;4928388;29;20432;-86
2022/06/02 02:16:43;;;;;;;17.38;15.65;;;;;;;6.87;88.18;101947.41;4899150;28;20044;-87
2022/06/02 02:19:53;;;;;;;15.60;14.23;;;;;;;6.88;87.41;101946.50;4941168;28;20402;-86
2022/06/02 02:22:22;;;;;;;15.05;13.68;;;;;;;6.67;87.92;101952.59;4905946;28;20042;-86
2022/06/02 02:25:30;;;;;;;14.60;13.07;;;;;;;6.74;87.42;101955.81;4945376;28;20533;-86
2022/06/02 02:28:02;;;;;;;16.95;13.23;;;;;;;6.64;87.15;101957.94;4937600;28;20700;-86
2022/06/02 02:30:44;;;;;;;15.32;13.85;;;;;;;6.69;87.53;101949.91;4935913;28;20039;-87
2022/06/02 02:33:44;;;;;;;15.93;14.55;;;;;;;6.67;87.19;101947.34;4932353;29;20035;-87
2022/06/02 02:36:22;;;;;;;15.82;14.30;;;;;;;6.63;87.47;101948.38;4942136;28;20027;-87
2022/06/02 02:39:18;;;;;;;15.77;14.32;;;;;;;6.56;88.13;101955.63;4939101;28;20038;-87
2022/06/02 02:42:06;;;;;;;16.90;15.30;;;;;;;6.59;87.75;101954.66;4937709;28;20058;-87
2022/06/02 02:44:55;;;;;;;16.50;14.90;;;;;;;6.51;87.96;101956.72;4942574;28;20082;-87
2022/06/02 02:47:25;;;;;;;16.60;15.13;;;;;;;6.47;87.89;101956.00;4941007;28;20040;-87
2022/06/02 02:50:09;;;;;;;16.70;15.10;;;;;;;6.44;87.87;101955.28;4945573;28;20038;-87
2022/06/02 02:52:47;;;;;;;16.92;15.32;;;;;;;6.45;87.75;101960.44;4948644;28;20038;-87
2022/06/02 02:55:19;;;;;;;17.17;15.48;;;;;;;6.44;88.22;101955.28;4948727;28;20086;-87
2022/06/02 02:57:56;;;;;;;17.15;15.45;;;;;;;6.42;88.32;101962.31;4940420;28;20041;-87
2022/06/02 03:00:31;;;;;;;17.27;15.68;;;;;;;6.33;88.68;101958.28;4932710;28;20054;-87
2022/06/02 03:03:38;;;;;;;16.80;15.10;;;;;;;6.40;88.00;101971.94;4943016;28;20035;-87
2022/06/02 03:06:27;;;;;;;18.42;16.55;;;;;;;6.45;88.88;101972.66;4914120;28;20031;-86
2022/06/02 03:09:10;;;;;;;19.85;18.00;;;;;;;6.37;89.69;101969.47;4930425;29;20032;-86
2022/06/02 03:11:53;;;;;;;19.13;17.08;;;;;;;6.32;89.18;101967.03;4952625;28;20027;-86
2022/06/02 03:14:40;;;;;;;18.83;16.90;;;;;;;6.29;88.68;101974.97;4942728;28;20030;-86
2022/06/02 03:17:33;;;;;;;18.15;16.45;;;;;;;6.20;88.68;101978.81;4934902;28;20038;-86
2022/06/02 03:20:05;;;;;;;17.40;15.80;;;;;;;6.17;88.17;101980.69;4924063;28;20046;-86
2022/06/02 03:22:46;;;;;;;18.30;16.48;;;;;;;6.21;88.32;101983.13;4934301;28;20019;-86
2022/06/02 03:25:34;;;;;;;17.73;16.02;;;;;;;6.21;88.47;101985.72;4945230;28;20033;-86
2022/06/02 03:28:16;;;;;;;17.05;15.45;;;;;;;6.14;88.39;101981.66;4927417;28;20146;-86
2022/06/02 03:30:48;;;;;;;17.88;16.23;;;;;;;6.11;88.83;101989.59;4932998;29;20042;-86
2022/06/02 03:33:38;;;;;;;18.92;17.13;;;;;;;6.15;88.92;101990.34;4944131;28;20075;-87
2022/06/02 03:36:23;;;;;;;21.02;19.02;;;;;;;6.15;88.91;101999.03;4941136;28;20386;-86
2022/06/02 03:39:05;;;;;;;22.10;19.90;;;;;;;6.01;89.40;101998.69;4937180;28;20502;-86
2022/06/02 03:41:55;;;;;;;21.67;19.58;;;;;;;6.10;88.88;101998.34;4934117;29;20497;-86
2022/06/02 03:44:51;;;;;;;20.90;18.95;;;;;;;6.08;88.81;102010.63;4929932;29;20046;-86
2022/06/02 03:47:29;;;;;;;20.35;18.45;;;;;;;6.04;88.48;102006.41;4944001;28;20035;-86
2022/06/02 03:50:06;;;;;;;21.58;19.67;;;;;;;6.02;88.94;102010.84;4949074;28;20119;-86
2022/06/02 03:52:49;;;;;;;22.27;20.17;;;;;;;6.09;89.12;102012.31;4954955;28;20031;-87
2022/06/02 03:55:37;;;;;;;22.40;20.20;;;;;;;6.08;89.08;102010.63;4943194;28;20094;-86
2022/06/02 03:58:33;;;;;;;22.65;20.60;;;;;;;6.11;89.38;102010.50;4934483;28;20050;-86
2022/06/02 04:01:03;;;;;;;22.48;20.48;;;;;;;6.14;89.42;102013.00;4934521;29;20027;-86
2022/06/02 04:04:02;;;;;;;22.35;20.27;;;;;;;6.64;89.36;102010.25;4936504;29;20034;-86
2022/06/02 04:06:54;;;;;;;22.27;20.17;;;;;;;7.60;86.12;102021.16;4951851;28;20074;-86
2022/06/02 04:09:57;;;;;;;20.83;18.80;;;;;;;8.74;82.18;102014.22;4960943;28;20450;-86
2022/06/02 04:15:54;;;;;;;17.13;15.52;;;;;;;10.64;73.00;102003.53;4955520;29;20438;-87
2022/06/02 04:18:35;;;;;;;16.38;14.88;;;;;;;10.94;72.03;102015.94;4973417;28;20018;-87
2022/06/02 04:21:15;;;;;;;16.52;15.02;;;;;;;10.53;72.56;102013.81;4971743;28;20405;-87
2022/06/02 04:23:56;;;;;;;17.08;15.48;;;;;;;10.10;72.32;102027.56;4958781;28;20065;-86
2022/06/02 04:26:49;;;;;;;18.80;17.00;;;;;;;9.70;75.40;102025.22;4955573;28;20121;-86
2022/06/02 04:29:26;;;;;;;18.98;17.25;;;;;;;9.17;75.61;102033.16;4981146;28;20015;-86
2022/06/02 04:31:59;;;;;;;22.27;20.17;;;;;;;9.03;78.09;102033.84;4973579;28;20086;-86
2022/06/02 04:34:43;;;;;;;;;;;;;;;9.16;77.66;102034.09;4976997;28;20459;-87
2022/06/02 04:37:36;;;;;;;21.35;19.35;;;;;;;8.67;79.24;102031.19;4960719;28;19910;-86
2022/06/02 04:40:16;;;;;;;23.08;20.90;;;;;;;8.48;80.03;102031.22;4941591;28;20114;-86
2022/06/02 04:42:53;;;;;;;24.50;21.90;;;;;;;8.25;82.00;102034.00;4960693;28;20027;-86
2022/06/02 04:45:25;;;;;;;23.15;20.95;;;;;;;8.14;82.61;102039.72;4943647;29;20615;-86
2022/06/02 04:48:11;;;;;;;25.30;22.80;;;;;;;8.09;83.09;102039.06;4948246;28;20043;-86
2022/06/02 04:51:14;;;;;;;25.27;22.75;;;;;;;8.03;83.96;102038.50;4949675;28;20377;-86
2022/06/02 04:53:51;;;;;;;26.77;24.20;;;;;;;7.97;84.53;102046.59;4942346;29;20031;-86
2022/06/02 04:56:47;;;;;;;31.02;27.98;;;;;;;7.90;85.78;102042.56;4953176;28;20114;-86
2022/06/02 04:59:25;;;;;;;29.98;27.10;;;;;;;7.88;86.39;102040.00;4944525;28;20754;-86
2022/06/02 05:02:10;;;;;;;31.38;28.15;;;;;;;7.81;87.34;102033.34;4942322;28;20400;-86
2022/06/02 05:04:41;;;;;;;31.30;28.30;;;;;;;7.82;88.02;102043.75;4944068;29;20055;-86
2022/06/02 05:07:19;;;;;;;32.15;29.10;;;;;;;7.82;88.63;102040.28;4949391;28;20058;-86
2022/06/02 05:10:11;;;;;;;34.72;31.25;;;;;;;7.82;89.48;102042.91;4950790;28;20043;-86
2022/06/02 05:13:01;;;;;;;37.75;34.03;;;;;;;7.88;90.05;102044.41;4931651;29;20031;-86
2022/06/02 05:15:56;;;;;;;38.63;34.72;;;;;;;7.95;90.57;102048.44;4950568;28;20026;-87
2022/06/02 05:18:51;;;;;;;37.15;33.55;;;;;;;8.03;91.03;102051.59;4949860;28;20118;-86
2022/06/02 05:21:31;;;;;;;36.00;32.50;;;;;;;8.06;91.23;102054.94;4934541;28;20046;-86
2022/06/02 05:24:26;;;;;;;37.55;33.65;;;;;;;8.10;90.55;102045.16;4938552;28;20035;-87
2022/06/02 05:27:39;;;;;;;37.42;33.72;;;;;;;8.15;90.77;102046.66;4947360;28;20038;-87
2022/06/02 05:30:08;;;;;;;38.38;34.38;;;;;;;8.12;91.54;102043.34;4950142;28;20133;-86
2022/06/02 05:32:46;;;;;;;39.67;35.58;;;;;;;8.22;92.29;102043.75;4945773;28;20027;-86
2022/06/02 05:35:45;;;;;;;39.42;35.22;;;;;;;8.32;92.08;102050.28;4950759;28;20143;-86
2022/06/02 05:38:41;;;;;;;40.80;36.60;;;;;;;8.39;92.07;102041.25;4953836;28;20031;-87
2022/06/02 05:41:25;;;;;;;40.20;36.20;;;;;;;8.48;92.43;102049.56;4945741;28;20040;-87
2022/06/02 05:44:17;;;;;;;42.55;38.13;;;;;;;8.58;92.19;102052.63;4954851;28;20030;-87
2022/06/02 05:47:14;;;;;;;43.17;38.85;;;;;;;8.69;92.62;102054.72;4948098;28;20034;-87
2022/06/02 05:49:55;;;;;;;42.88;36.90;;;;;;;8.72;92.16;102050.19;4951706;28;20027;-87
2022/06/02 05:52:39;;;;;;;47.00;41.80;;;;;;;8.92;94.48;102057.13;4951181;28;20054;-87
2022/06/02 05:55:23;;;;;;;47.25;42.20;;;;;;;9.05;94.83;102052.13;4931981;29;20122;-87
2022/06/02 05:57:48;;;;;;;45.25;39.65;;;;;;;9.18;94.95;102063.75;4933828;29;20227;-87
2022/06/02 06:00:41;;;;;;;42.45;38.25;;;;;;;9.28;94.97;102064.16;4945234;29;20035;-87
2022/06/02 06:03:25;;;;;;;44.25;39.85;;;;;;;9.41;95.21;102074.00;4939208;28;20105;-87
2022/06/02 06:05:57;;;;;;;42.08;37.65;;;;;;;9.56;95.05;102074.13;4949841;28;20409;-87
2022/06/02 06:08:35;;;;;;;39.60;35.70;;;;;;;9.62;94.49;102076.47;4947011;29;20070;-87
2022/06/02 06:11:12;;;;;;;40.78;36.53;;;;;;;9.78;94.47;102077.41;4928515;29;20456;-87
2022/06/02 06:13:57;;;;;;;37.65;33.78;;;;;;;9.83;93.59;102082.41;4948275;28;20370;-86
2022/06/02 06:16:44;;;;;;;35.25;31.55;;;;;;;9.94;92.49;102085.34;4936602;29;20023;-87
2022/06/02 06:19:35;;;;;;;33.97;30.45;;;;;;;10.07;92.40;102096.09;4948585;28;20030;-87
2022/06/02 06:22:35;;;;;;;33.28;29.92;;;;;;;10.17;90.79;102090.28;4933282;29;20035;-87
2022/06/02 06:25:06;;;;;;;35.10;31.38;;;;;;;10.25;91.60;102095.16;4946382;28;20488;-87
2022/06/02 06:27:41;;;;;;;33.53;30.05;;;;;;;10.32;90.59;102099.16;4932077;29;20034;-87
2022/06/02 06:30:09;;;;;;;32.20;28.95;;;;;;;10.39;90.41;102095.28;4950155;29;20023;-87
2022/06/02 06:32:46;;;;;;;32.10;29.00;;;;;;;10.43;90.64;102094.19;4945872;28;20397;-87
2022/06/02 06:35:26;;;;;;;34.78;31.42;;;;;;;10.52;91.69;102093.69;4929086;29;20038;-86
2022/06/02 06:38:07;;;;;;;31.70;28.52;;;;;;;10.61;90.68;102093.19;4949092;28;20062;-87
2022/06/02 06:40:58;;;;;;;31.77;28.65;;;;;;;10.71;90.74;102093.53;4948144;28;20034;-87
2022/06/02 06:43:38;;;;;;;29.63;26.70;;;;;;;10.81;88.62;102099.19;4938157;28;20378;-87
2022/06/02 06:46:03;;;;;;;30.25;27.35;;;;;;;10.97;90.46;102094.75;4946309;28;20035;-87
2022/06/02 06:48:36;;;;;;;30.50;27.48;;;;;;;11.03;89.80;102098.81;4940748;28;20038;-87
2022/06/02 06:51:32;;;;;;;28.65;25.98;;;;;;;11.17;89.80;102110.28;4933689;29;20110;-87
2022/06/02 06:54:31;;;;;;;26.88;24.15;;;;;;;11.35;88.38;102111.03;4937786;28;20032;-87
2022/06/02 06:57:16;;;;;;;26.42;23.77;;;;;;;11.51;86.63;102116.28;4930988;29;20486;-86
2022/06/02 07:00:19;;;;;;;26.52;23.77;;;;;;;11.77;86.39;102115.63;4936175;28;20023;-86
2022/06/02 07:03:15;;;;;;;25.40;23.00;;;;;;;12.07;86.03;102115.63;4915541;29;20047;-86
2022/06/02 07:05:42;;;;;;;21.50;19.50;;;;;;;12.31;82.14;102115.94;4933497;28;20031;-86
2022/06/02 07:08:35;;;;;;;23.58;20.95;;;;;;;12.67;82.87;102115.44;4947996;28;20130;-85
2022/06/02 07:14:34;;;;;;;11.48;10.40;;;;;;;13.55;77.77;102124.78;4944888;28;20041;-85
2022/06/02 07:17:07;;;;;;;10.93;9.95;;;;;;;14.03;73.20;102125.13;4946132;28;20031;-85
2022/06/02 07:20:07;;;;;;;11.07;9.93;;;;;;;14.39;73.86;102125.22;4944916;28;20573;-85
2022/06/02 07:22:52;;;;;;;10.10;9.10;;;;;;;14.37;70.08;102129.75;4947184;28;20516;-86
2022/06/02 07:25:57;;;;;;;7.32;5.93;;;;;;;14.06;70.21;102125.75;4944835;29;20512;-86
2022/06/02 07:28:44;;;;;;;9.48;8.57;;;;;;;13.90;71.05;102127.72;4946445;28;20043;-85
2022/06/02 07:31:31;;;;;;;11.80;10.60;;;;;;;14.00;72.08;102134.09;4948554;28;20461;-85
2022/06/02 07:34:15;;;;;;;11.68;10.57;;;;;;;14.46;68.90;102135.44;4949033;28;20027;-86
2022/06/02 07:37:08;;;;;;;10.77;9.82;;;;;;;15.05;68.28;102131.19;4954651;28;20033;-83
2022/06/02 07:39:47;;;;;;;;;;;;;;;15.50;71.05;102123.47;4939090;28;20138;-83
2022/06/02 07:42:39;;;;;;;12.95;11.07;;;;;;;15.60;66.45;102135.94;4934959;28;19915;-82
2022/06/02 07:45:22;;;;;;;12.98;10.90;;;;;;;15.74;65.07;102139.41;4951719;28;20473;-82
2022/06/02 07:47:55;;;;;;;10.88;9.77;;;;;;;15.72;66.46;102131.56;4935169;29;20028;-81
2022/06/02 07:50:29;;;;;;;10.68;9.63;;;;;;;15.72;65.68;102133.38;4945646;28;20032;-82
2022/06/02 07:53:20;;;;;;;10.70;9.63;;;;;;;15.53;64.84;102132.03;4950287;28;20032;-82
2022/06/02 07:56:15;;;;;;;11.38;10.30;;;;;;;15.74;67.03;102134.09;4944249;28;20121;-82
2022/06/02 07:59:05;;;;;;;9.32;8.45;;;;;;;16.18;63.98;102128.91;4941588;28;20049;-82
2022/06/02 08:01:50;;;;;;;9.57;8.68;;;;;;;16.90;61.32;102113.47;4928492;29;20031;-80
2022/06/02 08:04:48;;;;;;;8.77;7.97;;;;;;;17.43;60.39;102116.22;4943090;28;20093;-82
2022/06/02 08:07:34;;;;;;;8.60;7.47;;;;;;;17.84;59.57;102115.47;4973006;28;20126;-83
2022/06/02 08:10:21;;;;;;;8.40;7.18;;;;;;;18.17;57.00;102116.22;4968067;28;20058;-83
2022/06/02 08:12:56;;;;;;;7.45;6.65;;;;;;;18.39;54.90;102120.53;4955888;28;20050;-83
2022/06/02 08:15:40;;;;;;;6.90;6.20;;;;;;;18.36;56.33;102118.97;4948998;28;20083;-83
2022/06/02 08:18:38;;;;;;;8.75;6.45;;;;;;;18.42;54.05;102112.31;4935606;29;20032;-83
2022/06/02 08:21:17;;;;;;;5.43;4.90;;;;;;;18.69;51.35;102109.06;4928323;28;20035;-83
2022/06/02 08:23:52;;;;;;;6.68;5.57;;;;;;;18.72;53.65;102108.78;4933685;29;20394;-83
2022/06/02 08:26:29;;;;;;;5.97;4.95;;;;;;;18.27;51.61;102116.28;4934541;28;20105;-83
2022/06/02 08:29:28;;;;;;;5.50;4.95;;;;;;;18.05;52.22;102120.81;4953390;28;20067;-83
2022/06/02 08:32:11;;;;;;;6.15;5.65;;;;;;;18.09;55.45;102122.22;4932566;28;20042;-87
2022/06/02 08:35:04;;;;;;;7.05;5.40;;;;;;;18.34;53.50;102120.94;4936391;28;20048;-86
2022/06/02 08:37:51;;;;;;;;;;;;;;;18.69;56.87;102125.91;4934865;28;20093;-86
2022/06/02 08:41:30;;;;;;;8.43;7.63;;;;;;;18.84;54.88;102129.06;4951824;28;19918;-86
2022/06/02 08:44:31;;;;;;;8.25;7.28;;;;;;;18.90;53.96;102125.00;4912554;29;20043;-86
2022/06/02 08:47:29;;;;;;;8.50;6.43;;;;;;;18.94;51.20;102123.75;4908803;29;20526;-86
2022/06/02 08:50:32;;;;;;;7.70;7.00;;;;;;;18.93;53.12;102124.72;4927131;28;20191;-86
2022/06/02 08:53:41;;;;;;;8.80;7.43;;;;;;;18.75;52.88;102136.03;4952606;28;20745;-86
2022/06/02 08:56:13;;;;;;;7.95;7.25;;;;;;;18.88;51.77;102134.97;4946925;28;20686;-82
2022/06/02 08:58:58;;;;;;;6.70;6.10;;;;;;;18.98;51.13;102130.50;4932257;28;20453;-81
2022/06/02 09:02:00;;;;;;;8.70;6.40;;;;;;;18.94;52.40;102131.75;4947764;28;20031;-81
2022/06/02 09:04:50;;;;;;;7.38;6.38;;;;;;;18.71;52.05;102128.44;4938396;28;20528;-81
2022/06/02 09:07:48;;;;;;;7.97;7.28;;;;;;;18.74;52.59;102126.34;4940840;29;20059;-81
2022/06/02 09:10:45;;;;;;;7.88;7.13;;;;;;;18.68;52.70;102120.69;4928512;28;20130;-81
2022/06/02 09:13:59;;;;;;;7.68;7.05;;;;;;;18.94;53.18;102123.75;4944925;28;20032;-81
2022/06/02 09:16:44;;;;;;;7.60;6.80;;;;;;;18.93;50.39;102122.06;4903628;28;20508;-81
2022/06/02 09:19:33;;;;;;;6.18;5.57;;;;;;;19.07;52.12;102129.66;4936382;29;20031;-81
2022/06/02 09:22:10;;;;;;;7.60;6.40;;;;;;;19.25;49.09;102128.03;4939729;28;20027;-81
2022/06/02 09:24:50;;;;;;;6.65;6.00;;;;;;;19.50;49.25;102125.78;4959724;28;20117;-81
2022/06/02 09:27:24;;;;;;;6.90;6.30;;;;;;;19.64;48.36;102128.91;4950000;28;20054;-81
2022/06/02 09:30:12;;;;;;;9.00;6.70;;;;;;;19.71;47.94;102123.84;4944819;28;20054;-81
2022/06/02 09:32:59;;;;;;;7.50;6.00;;;;;;;19.94;48.60;102119.88;4934131;28;20497;-81
2022/06/02 09:35:36;;;;;;;7.03;6.35;;;;;;;19.67;47.80;102119.78;4937492;28;20031;-81
2022/06/02 09:38:41;;;;;;;7.05;5.70;;;;;;;19.49;49.15;102129.44;4945585;28;20082;-80
2022/06/02 09:41:24;;;;;;;8.75;6.75;;;;;;;19.38;48.96;102120.56;4948699;28;20027;-81
2022/06/02 09:44:32;;;;;;;7.68;6.95;;;;;;;19.35;49.95;102118.19;4940329;28;20035;-82
2022/06/02 09:47:21;;;;;;;9.20;6.95;;;;;;;19.10;48.03;102119.56;4915382;29;20059;-81
2022/06/02 09:50:14;;;;;;;7.25;6.65;;;;;;;18.65;49.62;102116.50;4941623;28;20035;-82
2022/06/02 09:53:00;;;;;;;7.18;6.57;;;;;;;18.66;49.23;102131.50;4941995;28;20830;-81
2022/06/02 09:56:03;;;;;;;7.80;7.00;;;;;;;18.64;50.43;102133.47;4944424;28;20031;-81
2022/06/02 09:58:50;;;;;;;7.00;6.22;;;;;;;18.83;50.36;102116.69;4948710;28;20399;-81
2022/06/02 10:01:44;;;;;;;7.03;6.35;;;;;;;19.07;49.92;102121.66;4950412;28;20110;-82
2022/06/02 10:04:35;;;;;;;8.13;7.35;;;;;;;19.21;49.35;102126.63;4949010;28;20113;-82
2022/06/02 10:07:07;;;;;;;9.00;7.38;;;;;;;19.23;48.39;102113.13;4962746;28;20109;-81
2022/06/02 10:10:09;;;;;;;8.40;7.45;;;;;;;19.41;49.76;102122.13;4955762;28;20384;-81
2022/06/02 10:13:00;;;;;;;8.23;7.45;;;;;;;19.57;48.31;102116.25;4951536;28;20033;-82
2022/06/02 10:15:41;;;;;;;7.45;6.75;;;;;;;19.79;48.56;102110.63;4945024;28;20031;-81
2022/06/02 10:18:19;;;;;;;7.90;7.20;;;;;;;20.01;47.32;102104.97;4945529;28;20694;-82
2022/06/02 10:21:22;;;;;;;7.65;6.75;;;;;;;20.29;48.38;102102.34;4943529;28;20038;-82
2022/06/02 10:24:10;;;;;;;6.60;6.10;;;;;;;20.45;47.46;102101.78;4946967;28;20059;-82
2022/06/02 10:27:07;;;;;;;5.80;5.30;;;;;;;20.28;43.31;102109.53;4949126;29;20047;-82
2022/06/02 10:29:56;;;;;;;5.28;4.78;;;;;;;20.42;44.80;102102.06;4944008;29;20034;-82
2022/06/02 10:32:43;;;;;;;5.70;5.20;;;;;;;20.34;42.87;102106.25;4938636;29;20090;-82
2022/06/02 10:35:33;;;;;;;6.93;6.30;;;;;;;20.42;44.49;102102.91;4930816;29;20062;-82
2022/06/02 10:38:29;;;;;;;6.28;5.78;;;;;;;20.76;45.34;102097.78;4930237;29;20201;-82
2022/06/02 10:41:13;;;;;;;6.85;6.25;;;;;;;20.90;44.07;102099.16;4948776;28;20110;-82
2022/06/02 10:43:39;;;;;;;7.05;6.32;;;;;;;20.80;42.80;102090.31;4935903;29;20049;-82
2022/06/02 10:46:10;;;;;;;6.72;6.07;;;;;;;20.88;43.49;102093.94;4944618;28;20031;-82
2022/06/02 10:49:02;;;;;;;5.77;5.27;;;;;;;20.82;44.26;102091.03;4943802;28;20093;-81
2022/06/02 10:51:49;;;;;;;7.15;5.65;;;;;;;20.73;44.29;102094.56;4936839;29;20031;-82
2022/06/02 10:54:43;;;;;;;5.47;4.97;;;;;;;21.02;44.68;102097.09;4947957;28;20089;-82
2022/06/02 10:58:02;;;;;;;6.35;5.75;;;;;;;21.11;44.71;102091.66;4946117;28;20121;-83
2022/06/02 11:00:36;;;;;;;6.68;6.07;;;;;;;20.50;43.56;102095.00;4931030;29;20032;-83
2022/06/02 11:03:17;;;;;;;7.10;6.45;;;;;;;20.51;44.81;102085.97;4936823;28;20049;-83
2022/06/02 11:06:17;;;;;;;6.93;6.15;;;;;;;20.53;44.84;102084.00;4930947;29;20135;-83
2022/06/02 11:09:19;;;;;;;5.75;5.03;;;;;;;20.98;43.98;102083.16;4930414;28;20055;-83
2022/06/02 11:12:32;;;;;;;5.40;4.90;;;;;;;21.30;43.45;102076.50;4944085;28;20098;-82
2022/06/02 11:15:24;;;;;;;5.43;4.97;;;;;;;21.72;41.49;102088.25;4948537;28;20042;-82
2022/06/02 11:17:52;;;;;;;6.65;5.95;;;;;;;21.22;40.88;102078.06;4942867;28;20094;-82
2022/06/02 11:20:40;;;;;;;7.47;6.75;;;;;;;20.84;43.89;102081.84;4933273;29;20031;-82
2022/06/02 11:23:25;;;;;;;7.00;6.40;;;;;;;20.71;43.56;102077.84;4929272;28;20041;-82
2022/06/02 11:26:09;;;;;;;6.45;5.85;;;;;;;20.68;43.84;102070.13;4927835;29;20121;-82
2022/06/02 11:28:52;;;;;;;6.72;5.97;;;;;;;20.30;45.05;102077.28;4933911;29;20045;-82
2022/06/02 11:31:35;;;;;;;;;;;;;;;20.38;46.21;102079.22;4944924;28;20389;-82
2022/06/02 11:34:16;;;;;;;6.07;5.47;;;;;;;20.62;44.81;102071.56;4933095;29;19915;-82
2022/06/02 11:37:16;;;;;;;6.80;6.20;;;;;;;20.75;44.22;102071.19;4953385;28;20074;-82
2022/06/02 11:40:10;;;;;;;6.18;5.60;;;;;;;20.97;44.81;102068.09;4944022;28;20402;-82
2022/06/02 11:43:07;;;;;;;6.60;6.00;;;;;;;20.71;43.67;102067.13;4930326;29;20455;-82
2022/06/02 11:46:09;;;;;;;7.00;6.30;;;;;;;20.47;43.73;102063.19;4944681;29;20023;-83
2022/06/02 11:48:53;;;;;;;6.68;6.07;;;;;;;20.61;42.24;102053.81;4931154;29;20030;-83
2022/06/02 11:51:54;;;;;;;7.88;5.72;;;;;;;20.94;43.68;102052.34;4949594;29;20051;-83
2022/06/02 11:54:25;;;;;;;6.80;6.15;;;;;;;21.41;41.84;102041.44;4948934;29;20102;-83
2022/06/02 11:57:24;;;;;;;6.60;6.00;;;;;;;21.67;41.82;102046.84;4945362;28;20035;-82
2022/06/02 12:00:07;;;;;;;6.20;5.57;;;;;;;21.73;41.48;102052.41;4943088;28;20039;-82
2022/06/02 12:03:03;;;;;;;6.07;5.47;;;;;;;21.82;42.03;102042.59;4946028;28;20034;-82
2022/06/02 12:06:01;;;;;;;5.63;5.00;;;;;;;22.09;41.32;102033.56;4953646;28;20039;-82
2022/06/02 12:08:26;;;;;;;7.03;5.60;;;;;;;21.93;38.34;102030.75;4934714;28;20039;-84
2022/06/02 12:11:19;;;;;;;6.32;5.13;;;;;;;21.99;40.17;102036.31;4929579;28;20405;-85
2022/06/02 12:14:09;;;;;;;5.00;4.60;;;;;;;21.77;39.83;102032.34;4949970;28;20068;-83
2022/06/02 12:16:59;;;;;;;4.50;4.10;;;;;;;21.83;40.90;102029.03;4947860;28;20564;-83
2022/06/02 12:19:31;;;;;;;5.95;5.10;;;;;;;22.00;39.91;102021.06;4953169;28;20478;-84
2022/06/02 12:21:57;;;;;;;4.53;4.13;;;;;;;;;;4953866;28;20226;-86
2022/06/02 12:24:44;;;;;;;5.45;4.95;;;;;;;22.26;37.95;102011.19;4950207;28;20146;-85
2022/06/02 12:27:15;;;;;;;5.18;4.78;;;;;;;21.88;38.98;102015.16;4950391;28;20044;-86
2022/06/02 12:29:47;;;;;;;5.30;4.70;;;;;;;21.47;39.34;102008.69;4929817;28;20027;-86
2022/06/02 12:32:30;;;;;;;4.82;4.35;;;;;;;21.15;40.36;102017.25;4948991;28;20035;-86
2022/06/02 12:35:05;;;;;;;5.45;4.50;;;;;;;20.71;41.02;102011.81;4929349;29;20659;-85
2022/06/02 12:37:56;;;;;;;4.63;4.15;;;;;;;20.90;41.95;102010.84;4932881;28;20570;-86
2022/06/02 12:40:35;;;;;;;5.88;4.65;;;;;;;21.16;41.24;102010.91;4925751;29;20038;-86
2022/06/02 12:43:18;;;;;;;4.68;4.28;;;;;;;21.56;40.90;102005.06;4949351;28;20397;-86
2022/06/02 12:45:48;;;;;;;;;;;;;;;21.96;41.67;102000.94;4946695;28;20027;-86
2022/06/02 12:48:44;;;;;;;4.68;4.28;;;;;;;22.03;38.99;101994.84;4947988;28;19934;-86
2022/06/02 12:51:31;;;;;;;6.63;4.15;;;;;;;21.76;37.64;101990.47;4931443;29;20110;-86
2022/06/02 12:54:34;;;;;;;8.00;4.70;;;;;;;22.07;40.61;101985.47;4947186;28;20031;-86
2022/06/02 12:57:06;;;;;;;4.65;4.25;;;;;;;22.16;38.14;101983.66;4930674;29;20161;-86
2022/06/02 12:59:59;;;;;;;5.07;4.57;;;;;;;22.24;38.49;101981.00;4929173;28;20087;-87